Terminal Aerodrome Forecast
Issued by NWS

Home | Current Version | Previous Version | Text Only | Print | Product List | Glossary On
Versions: 1 2 3 4 5 6 7 8 9 10 11 12 13 14 15 16 17 18 19 20 21
000
FTUS46 KPDT 191204 AAA
TAFRDM
TAF AMD
KRDM 191204Z 1912/2012 32006KT P6SM FEW005 BKN035
     FM191600 32008KT P6SM BKN070
     FM192000 32012KT P6SM SCT120
     FM200600 VRB06KT P6SM FEW250=

USA.gov is the U.S. government's official web portal to all federal, state and local government web resources and services.